sensor_id;sensor_type;location;lat;lon;timestamp;pressure;altitude;pressure_sealevel;temperature;humidity
72721;BME280;60835;50.974;10.322;2023-08-06T00:00:37;96199.53;;;14.79;100.00
72721;BME280;60835;50.974;10.322;2023-08-06T00:03:04;96203.34;;;14.83;100.00
72721;BME280;60835;50.974;10.322;2023-08-06T00:05:32;96210.66;;;14.76;100.00
72721;BME280;60835;50.974;10.322;2023-08-06T00:07:59;96208.09;;;14.81;100.00
72721;BME280;60835;50.974;10.322;2023-08-06T00:10:25;96202.66;;;14.64;100.00
72721;BME280;60835;50.974;10.322;2023-08-06T00:12:52;96203.13;;;14.73;100.00
72721;BME280;60835;50.974;10.322;2023-08-06T00:15:19;96191.34;;;14.69;100.00
72721;BME280;60835;50.974;10.322;2023-08-06T00:17:45;96198.50;;;14.80;100.00
72721;BME280;60835;50.974;10.322;2023-08-06T00:20:12;96187.97;;;14.85;100.00
72721;BME280;60835;50.974;10.322;2023-08-06T00:22:39;96198.00;;;14.83;100.00
72721;BME280;60835;50.974;10.322;2023-08-06T00:25:06;96204.50;;;14.75;100.00
72721;BME280;60835;50.974;10.322;2023-08-06T00:27:33;96198.38;;;14.75;100.00
72721;BME280;60835;50.974;10.322;2023-08-06T00:29:59;96188.41;;;14.82;100.00
72721;BME280;60835;50.974;10.322;2023-08-06T00:32:26;96183.56;;;14.79;100.00
72721;BME280;60835;50.974;10.322;2023-08-06T00:34:52;96194.31;;;14.72;100.00
72721;BME280;60835;50.974;10.322;2023-08-06T00:37:19;96194.31;;;14.72;100.00
72721;BME280;60835;50.974;10.322;2023-08-06T00:39:47;96185.31;;;14.73;100.00
72721;BME280;60835;50.974;10.322;2023-08-06T00:42:13;96165.97;;;14.78;100.00
72721;BME280;60835;50.974;10.322;2023-08-06T00:44:40;96164.47;;;14.82;100.00
72721;BME280;60835;50.974;10.322;2023-08-06T00:47:07;96158.13;;;14.71;100.00
72721;BME280;60835;50.974;10.322;2023-08-06T00:49:35;96156.28;;;14.72;100.00
72721;BME280;60835;50.974;10.322;2023-08-06T00:52:04;96173.47;;;14.81;100.00
72721;BME280;60835;50.974;10.322;2023-08-06T00:54:31;96176.41;;;14.68;100.00
72721;BME280;60835;50.974;10.322;2023-08-06T00:56:59;96181.72;;;14.68;100.00
72721;BME280;60835;50.974;10.322;2023-08-06T00:59:28;96174.91;;;14.72;100.00
72721;BME280;60835;50.974;10.322;2023-08-06T01:01:56;96171.66;;;14.70;100.00
72721;BME280;60835;50.974;10.322;2023-08-06T01:04:23;96167.50;;;14.62;100.00
72721;BME280;60835;50.974;10.322;2023-08-06T01:10:27;96163.34;;;14.66;100.00
72721;BME280;60835;50.974;10.322;2023-08-06T01:13:16;96157.06;;;14.72;100.00
72721;BME280;60835;50.974;10.322;2023-08-06T01:15:47;96153.03;;;14.70;100.00
72721;BME280;60835;50.974;10.322;2023-08-06T01:18:16;96156.13;;;14.78;100.00
72721;BME280;60835;50.974;10.322;2023-08-06T01:20:42;96157.97;;;14.78;100.00
72721;BME280;60835;50.974;10.322;2023-08-06T01:23:09;96159.97;;;14.71;100.00
72721;BME280;60835;50.974;10.322;2023-08-06T01:25:42;96168.53;;;14.73;100.00
72721;BME280;60835;50.974;10.322;2023-08-06T01:28:21;96164.84;;;14.74;100.00
72721;BME280;60835;50.974;10.322;2023-08-06T01:30:50;96166.44;;;14.75;100.00
72721;BME280;60835;50.974;10.322;2023-08-06T01:33:20;96160.66;;;14.78;100.00
72721;BME280;60835;50.974;10.322;2023-08-06T01:35:49;96170.06;;;14.69;100.00
72721;BME280;60835;50.974;10.322;2023-08-06T01:38:16;96178.34;;;14.72;100.00
72721;BME280;60835;50.974;10.322;2023-08-06T01:40:43;96184.75;;;14.59;100.00
72721;BME280;60835;50.974;10.322;2023-08-06T01:43:10;96173.84;;;14.73;100.00
72721;BME280;60835;50.974;10.322;2023-08-06T01:45:37;96172.34;;;14.77;100.00
72721;BME280;60835;50.974;10.322;2023-08-06T01:48:03;96164.38;;;14.77;100.00
72721;BME280;60835;50.974;10.322;2023-08-06T01:50:30;96158.91;;;14.83;100.00
72721;BME280;60835;50.974;10.322;2023-08-06T01:52:57;96170.38;;;14.72;100.00
72721;BME280;60835;50.974;10.322;2023-08-06T01:55:23;96158.72;;;14.61;100.00
72721;BME280;60835;50.974;10.322;2023-08-06T01:57:50;96175.47;;;14.74;100.00
72721;BME280;60835;50.974;10.322;2023-08-06T02:00:16;96183.00;;;14.65;100.00
72721;BME280;60835;50.974;10.322;2023-08-06T02:02:43;96180.50;;;14.58;100.00
72721;BME280;60835;50.974;10.322;2023-08-06T02:05:09;96173.63;;;14.62;100.00
72721;BME280;60835;50.974;10.322;2023-08-06T02:07:36;96167.19;;;14.58;100.00
72721;BME280;60835;50.974;10.322;2023-08-06T02:10:03;96165.19;;;14.54;100.00
72721;BME280;60835;50.974;10.322;2023-08-06T02:12:30;96161.50;;;14.67;100.00
72721;BME280;60835;50.974;10.322;2023-08-06T02:14:56;96159.41;;;14.69;100.00
72721;BME280;60835;50.974;10.322;2023-08-06T02:17:23;96150.25;;;14.64;100.00
72721;BME280;60835;50.974;10.322;2023-08-06T02:19:49;96146.78;;;14.76;100.00
72721;BME280;60835;50.974;10.322;2023-08-06T02:22:17;96137.66;;;14.60;100.00
72721;BME280;60835;50.974;10.322;2023-08-06T02:24:43;96137.75;;;14.77;100.00
72721;BME280;60835;50.974;10.322;2023-08-06T02:27:10;96144.09;;;14.87;100.00
72721;BME280;60835;50.974;10.322;2023-08-06T02:29:36;96143.13;;;14.93;100.00
72721;BME280;60835;50.974;10.322;2023-08-06T02:32:03;96150.47;;;14.75;100.00
72721;BME280;60835;50.974;10.322;2023-08-06T02:34:30;96150.47;;;14.75;100.00
72721;BME280;60835;50.974;10.322;2023-08-06T02:36:56;96133.09;;;14.84;100.00
72721;BME280;60835;50.974;10.322;2023-08-06T02:39:23;96131.16;;;14.79;100.00
72721;BME280;60835;50.974;10.322;2023-08-06T02:41:49;96140.50;;;14.82;100.00
72721;BME280;60835;50.974;10.322;2023-08-06T02:44:16;96148.88;;;14.74;100.00
72721;BME280;60835;50.974;10.322;2023-08-06T02:46:44;96140.72;;;14.80;100.00
72721;BME280;60835;50.974;10.322;2023-08-06T02:49:11;96139.50;;;14.71;100.00
72721;BME280;60835;50.974;10.322;2023-08-06T02:51:38;96149.59;;;14.57;100.00
72721;BME280;60835;50.974;10.322;2023-08-06T02:54:04;96150.06;;;14.54;100.00
72721;BME280;60835;50.974;10.322;2023-08-06T02:56:31;96145.19;;;14.63;100.00
72721;BME280;60835;50.974;10.322;2023-08-06T02:58:58;96145.44;;;14.50;100.00
72721;BME280;60835;50.974;10.322;2023-08-06T03:01:24;96155.75;;;14.46;100.00
72721;BME280;60835;50.974;10.322;2023-08-06T03:03:53;96157.69;;;14.62;100.00
72721;BME280;60835;50.974;10.322;2023-08-06T03:06:19;96146.56;;;14.66;100.00
72721;BME280;60835;50.974;10.322;2023-08-06T03:08:46;96156.84;;;14.74;100.00
72721;BME280;60835;50.974;10.322;2023-08-06T03:11:12;96154.84;;;14.81;100.00
72721;BME280;60835;50.974;10.322;2023-08-06T03:13:39;96147.94;;;14.80;100.00
72721;BME280;60835;50.974;10.322;2023-08-06T03:16:06;96150.03;;;14.66;100.00
72721;BME280;60835;50.974;10.322;2023-08-06T03:18:32;96155.13;;;14.68;100.00
72721;BME280;60835;50.974;10.322;2023-08-06T03:20:59;96169.25;;;14.56;100.00
72721;BME280;60835;50.974;10.322;2023-08-06T03:23:25;96184.75;;;14.59;100.00
72721;BME280;60835;50.974;10.322;2023-08-06T03:25:52;96193.44;;;14.55;100.00
72721;BME280;60835;50.974;10.322;2023-08-06T03:28:18;96195.59;;;14.70;100.00
72721;BME280;60835;50.974;10.322;2023-08-06T03:30:45;96203.97;;;14.50;100.00
72721;BME280;60835;50.974;10.322;2023-08-06T03:33:12;96196.00;;;14.50;100.00
72721;BME280;60835;50.974;10.322;2023-08-06T03:35:38;96194.56;;;14.59;100.00
72721;BME280;60835;50.974;10.322;2023-08-06T03:38:05;96215.41;;;14.39;100.00
72721;BME280;60835;50.974;10.322;2023-08-06T03:40:32;96216.47;;;14.49;100.00
72721;BME280;60835;50.974;10.322;2023-08-06T03:43:01;96207.19;;;14.40;100.00
72721;BME280;60835;50.974;10.322;2023-08-06T03:45:27;96212.66;;;14.45;100.00
72721;BME280;60835;50.974;10.322;2023-08-06T03:47:54;96206.75;;;14.43;100.00
72721;BME280;60835;50.974;10.322;2023-08-06T03:50:21;96204.53;;;14.29;100.00
72721;BME280;60835;50.974;10.322;2023-08-06T03:52:47;96199.94;;;14.36;100.00
72721;BME280;60835;50.974;10.322;2023-08-06T03:55:14;96207.41;;;14.27;100.00
72721;BME280;60835;50.974;10.322;2023-08-06T03:57:40;96185.13;;;14.40;100.00
72721;BME280;60835;50.974;10.322;2023-08-06T04:00:07;96170.09;;;14.34;100.00
72721;BME280;60835;50.974;10.322;2023-08-06T04:02:34;96164.63;;;14.40;100.00
72721;BME280;60835;50.974;10.322;2023-08-06T04:05:01;96168.00;;;14.36;100.00
72721;BME280;60835;50.974;10.322;2023-08-06T04:07:28;96171.13;;;14.33;100.00
72721;BME280;60835;50.974;10.322;2023-08-06T04:09:57;96163.13;;;14.21;100.00
72721;BME280;60835;50.974;10.322;2023-08-06T04:12:24;96164.16;;;14.09;100.00
72721;BME280;60835;50.974;10.322;2023-08-06T04:14:51;96164.41;;;14.07;100.00
72721;BME280;60835;50.974;10.322;2023-08-06T04:17:21;96170.06;;;13.99;100.00
72721;BME280;60835;50.974;10.322;2023-08-06T04:19:52;96157.69;;;13.93;100.00
72721;BME280;60835;50.974;10.322;2023-08-06T04:22:21;96139.53;;;13.78;100.00
72721;BME280;60835;50.974;10.322;2023-08-06T04:24:47;96137.69;;;13.90;100.00
72721;BME280;60835;50.974;10.322;2023-08-06T04:27:15;96120.00;;;13.96;100.00
72721;BME280;60835;50.974;10.322;2023-08-06T04:29:42;96112.03;;;13.96;100.00
72721;BME280;60835;50.974;10.322;2023-08-06T04:32:09;96095.78;;;13.92;100.00
72721;BME280;60835;50.974;10.322;2023-08-06T04:34:37;96103.59;;;13.99;100.00
72721;BME280;60835;50.974;10.322;2023-08-06T04:37:04;96090.06;;;14.00;100.00
72721;BME280;60835;50.974;10.322;2023-08-06T04:39:31;96099.44;;;13.91;100.00
72721;BME280;60835;50.974;10.322;2023-08-06T04:41:57;96102.47;;;13.95;100.00
72721;BME280;60835;50.974;10.322;2023-08-06T04:44:24;96100.94;;;13.87;100.00
72721;BME280;60835;50.974;10.322;2023-08-06T04:46:51;96117.59;;;13.94;100.00
72721;BME280;60835;50.974;10.322;2023-08-06T04:49:20;96124.41;;;14.02;100.00
72721;BME280;60835;50.974;10.322;2023-08-06T04:51:46;96123.81;;;14.12;100.00
72721;BME280;60835;50.974;10.322;2023-08-06T04:54:13;96128.81;;;14.08;100.00
72721;BME280;60835;50.974;10.322;2023-08-06T04:56:40;96129.84;;;14.07;100.00
72721;BME280;60835;50.974;10.322;2023-08-06T04:59:06;96150.09;;;14.08;100.00
72721;BME280;60835;50.974;10.322;2023-08-06T05:01:33;96161.75;;;14.07;100.00
72721;BME280;60835;50.974;10.322;2023-08-06T05:04:00;96166.50;;;14.05;100.00
72721;BME280;60835;50.974;10.322;2023-08-06T05:06:27;96183.91;;;14.01;100.00
72721;BME280;60835;50.974;10.322;2023-08-06T05:08:55;96183.34;;;13.99;100.00
72721;BME280;60835;50.974;10.322;2023-08-06T05:11:24;96191.00;;;14.07;100.00
72721;BME280;60835;50.974;10.322;2023-08-06T05:13:50;96185.44;;;14.09;100.00
72721;BME280;60835;50.974;10.322;2023-08-06T05:16:17;96190.53;;;14.10;100.00
72721;BME280;60835;50.974;10.322;2023-08-06T05:18:44;96193.88;;;14.06;100.00
72721;BME280;60835;50.974;10.322;2023-08-06T05:21:11;96210.28;;;14.02;100.00
72721;BME280;60835;50.974;10.322;2023-08-06T05:23:37;96197.94;;;14.08;100.00
72721;BME280;60835;50.974;10.322;2023-08-06T05:26:04;96203.94;;;14.15;100.00
72721;BME280;60835;50.974;10.322;2023-08-06T05:28:32;96201.41;;;14.20;100.00
72721;BME280;60835;50.974;10.322;2023-08-06T05:31:03;96203.03;;;14.21;100.00
72721;BME280;60835;50.974;10.322;2023-08-06T05:33:29;96196.75;;;14.27;100.00
72721;BME280;60835;50.974;10.322;2023-08-06T05:35:56;96203.47;;;14.18;100.00
72721;BME280;60835;50.974;10.322;2023-08-06T05:38:22;96203.81;;;14.22;100.00
72721;BME280;60835;50.974;10.322;2023-08-06T05:40:49;96181.28;;;14.24;100.00
72721;BME280;60835;50.974;10.322;2023-08-06T05:43:16;96186.63;;;14.24;100.00
72721;BME280;60835;50.974;10.322;2023-08-06T05:45:46;96157.81;;;14.44;100.00
72721;BME280;60835;50.974;10.322;2023-08-06T05:48:13;96146.28;;;14.39;100.00
72721;BME280;60835;50.974;10.322;2023-08-06T05:50:39;96139.41;;;14.54;100.00
72721;BME280;60835;50.974;10.322;2023-08-06T05:53:06;96150.97;;;14.72;100.00
72721;BME280;60835;50.974;10.322;2023-08-06T05:55:33;96138.28;;;14.90;100.00
72721;BME280;60835;50.974;10.322;2023-08-06T05:58:00;96139.44;;;14.94;100.00
72721;BME280;60835;50.974;10.322;2023-08-06T06:00:26;96118.03;;;15.17;100.00
72721;BME280;60835;50.974;10.322;2023-08-06T06:02:53;96136.28;;;15.70;100.00
72721;BME280;60835;50.974;10.322;2023-08-06T06:05:20;96163.53;;;15.72;100.00
72721;BME280;60835;50.974;10.322;2023-08-06T06:07:47;96148.66;;;16.86;100.00
72721;BME280;60835;50.974;10.322;2023-08-06T06:10:13;96242.69;;;17.32;100.00
72721;BME280;60835;50.974;10.322;2023-08-06T06:12:40;96323.66;;;17.32;100.00
72721;BME280;60835;50.974;10.322;2023-08-06T06:15:07;96378.34;;;18.06;100.00
72721;BME280;60835;50.974;10.322;2023-08-06T06:17:34;96523.03;;;18.43;100.00
72721;BME280;60835;50.974;10.322;2023-08-06T06:20:01;96603.66;;;18.47;100.00
72721;BME280;60835;50.974;10.322;2023-08-06T06:22:29;96654.19;;;18.98;100.00
72721;BME280;60835;50.974;10.322;2023-08-06T06:24:56;96736.00;;;19.06;100.00
72721;BME280;60835;50.974;10.322;2023-08-06T06:27:23;96726.22;;;18.95;100.00
72721;BME280;60835;50.974;10.322;2023-08-06T06:29:49;96718.34;;;18.66;100.00
72721;BME280;60835;50.974;10.322;2023-08-06T06:32:16;96712.81;;;18.95;100.00
72721;BME280;60835;50.974;10.322;2023-08-06T06:34:43;96720.53;;;18.53;100.00
72721;BME280;60835;50.974;10.322;2023-08-06T06:37:09;96720.31;;;18.76;100.00
72721;BME280;60835;50.974;10.322;2023-08-06T06:39:36;96756.00;;;18.98;100.00
72721;BME280;60835;50.974;10.322;2023-08-06T06:42:02;96747.03;;;19.09;100.00
72721;BME280;60835;50.974;10.322;2023-08-06T06:44:29;96751.31;;;18.72;100.00
72721;BME280;60835;50.974;10.322;2023-08-06T06:46:56;96752.94;;;19.76;100.00
72721;BME280;60835;50.974;10.322;2023-08-06T06:49:22;96773.41;;;18.79;100.00
72721;BME280;60835;50.974;10.322;2023-08-06T06:51:49;96743.50;;;17.87;100.00
72721;BME280;60835;50.974;10.322;2023-08-06T06:54:17;96701.88;;;18.58;100.00
72721;BME280;60835;50.974;10.322;2023-08-06T06:56:43;96784.41;;;19.37;100.00
72721;BME280;60835;50.974;10.322;2023-08-06T06:59:10;96841.94;;;20.43;100.00
72721;BME280;60835;50.974;10.322;2023-08-06T07:01:36;96870.69;;;19.34;100.00
72721;BME280;60835;50.974;10.322;2023-08-06T07:04:03;96834.59;;;20.65;100.00
72721;BME280;60835;50.974;10.322;2023-08-06T07:06:31;96912.66;;;20.76;100.00
72721;BME280;60835;50.974;10.322;2023-08-06T07:08:58;96919.34;;;20.03;100.00
72721;BME280;60835;50.974;10.322;2023-08-06T07:11:25;96912.22;;;19.15;100.00
72721;BME280;60835;50.974;10.322;2023-08-06T07:13:58;96887.41;;;19.80;100.00
72721;BME280;60835;50.974;10.322;2023-08-06T07:16:25;96898.94;;;19.59;100.00
72721;BME280;60835;50.974;10.322;2023-08-06T07:18:53;96844.03;;;18.90;100.00
72721;BME280;60835;50.974;10.322;2023-08-06T07:21:20;96897.63;;;20.26;100.00
72721;BME280;60835;50.974;10.322;2023-08-06T07:23:47;96889.09;;;21.71;100.00
72721;BME280;60835;50.974;10.322;2023-08-06T07:26:16;96996.78;;;22.85;100.00
72721;BME280;60835;50.974;10.322;2023-08-06T07:28:43;97052.00;;;20.07;100.00
72721;BME280;60835;50.974;10.322;2023-08-06T07:31:11;96935.78;;;21.08;100.00
72721;BME280;60835;50.974;10.322;2023-08-06T07:33:38;96914.94;;;21.67;100.00
72721;BME280;60835;50.974;10.322;2023-08-06T07:36:12;97009.78;;;20.19;100.00
72721;BME280;60835;50.974;10.322;2023-08-06T07:38:39;96946.41;;;21.25;100.00
72721;BME280;60835;50.974;10.322;2023-08-06T07:41:06;96993.59;;;21.79;100.00
72721;BME280;60835;50.974;10.322;2023-08-06T07:43:33;96989.94;;;20.69;100.00
72721;BME280;60835;50.974;10.322;2023-08-06T07:46:00;96931.03;;;19.92;100.00
72721;BME280;60835;50.974;10.322;2023-08-06T07:48:27;96928.63;;;19.02;100.00
72721;BME280;60835;50.974;10.322;2023-08-06T07:50:54;96841.19;;;19.51;100.00
72721;BME280;60835;50.974;10.322;2023-08-06T07:53:22;96858.16;;;19.02;100.00
72721;BME280;60835;50.974;10.322;2023-08-06T07:55:52;96826.09;;;19.28;100.00
72721;BME280;60835;50.974;10.322;2023-08-06T07:58:20;96854.56;;;18.96;100.00
72721;BME280;60835;50.974;10.322;2023-08-06T08:00:47;96844.03;;;18.73;100.00
72721;BME280;60835;50.974;10.322;2023-08-06T08:03:14;96836.81;;;18.90;100.00
72721;BME280;60835;50.974;10.322;2023-08-06T08:05:43;96831.31;;;20.05;100.00
72721;BME280;60835;50.974;10.322;2023-08-06T08:08:10;96919.06;;;20.75;100.00
72721;BME280;60835;50.974;10.322;2023-08-06T08:10:37;96942.84;;;20.88;100.00
72721;BME280;60835;50.974;10.322;2023-08-06T08:13:05;96989.25;;;20.78;100.00
72721;BME280;60835;50.974;10.322;2023-08-06T08:15:33;97012.19;;;21.44;100.00
72721;BME280;60835;50.974;10.322;2023-08-06T08:18:00;97052.06;;;20.72;100.00
72721;BME280;60835;50.974;10.322;2023-08-06T08:20:27;97057.28;;;21.32;100.00
72721;BME280;60835;50.974;10.322;2023-08-06T08:23:02;97033.91;;;20.84;100.00
72721;BME280;60835;50.974;10.322;2023-08-06T08:25:28;96990.72;;;20.91;100.00
72721;BME280;60835;50.974;10.322;2023-08-06T08:27:57;97068.59;;;21.66;100.00
72721;BME280;60835;50.974;10.322;2023-08-06T08:30:24;97132.88;;;20.65;100.00
72721;BME280;60835;50.974;10.322;2023-08-06T08:32:52;97046.69;;;21.20;100.00
72721;BME280;60835;50.974;10.322;2023-08-06T08:35:19;97135.16;;;21.44;100.00
72721;BME280;60835;50.974;10.322;2023-08-06T08:37:46;97104.00;;;20.78;100.00
72721;BME280;60835;50.974;10.322;2023-08-06T08:40:14;97068.63;;;22.03;100.00
72721;BME280;60835;50.974;10.322;2023-08-06T08:42:42;97183.78;;;22.64;100.00
72721;BME280;60835;50.974;10.322;2023-08-06T08:45:13;97196.66;;;22.15;100.00
72721;BME280;60835;50.974;10.322;2023-08-06T08:47:41;97175.63;;;21.85;100.00
72721;BME280;60835;50.974;10.322;2023-08-06T08:50:10;97100.66;;;22.46;100.00
72721;BME280;60835;50.974;10.322;2023-08-06T08:52:38;97149.75;;;21.26;100.00
72721;BME280;60835;50.974;10.322;2023-08-06T08:55:07;97118.81;;;20.58;100.00
72721;BME280;60835;50.974;10.322;2023-08-06T08:57:34;97088.25;;;20.64;100.00
72721;BME280;60835;50.974;10.322;2023-08-06T09:00:01;97073.38;;;21.59;100.00
72721;BME280;60835;50.974;10.322;2023-08-06T09:02:28;97143.28;;;22.54;100.00
72721;BME280;60835;50.974;10.322;2023-08-06T09:04:59;97200.16;;;23.61;100.00
72721;BME280;60835;50.974;10.322;2023-08-06T09:07:35;97158.84;;;21.20;100.00
72721;BME280;60835;50.974;10.322;2023-08-06T09:10:06;97035.56;;;20.63;100.00
72721;BME280;60835;50.974;10.322;2023-08-06T09:12:35;97019.44;;;21.12;100.00
72721;BME280;60835;50.974;10.322;2023-08-06T09:15:01;97056.19;;;21.28;100.00
72721;BME280;60835;50.974;10.322;2023-08-06T09:17:29;97109.44;;;22.68;100.00
72721;BME280;60835;50.974;10.322;2023-08-06T09:19:56;97136.84;;;21.81;100.00
72721;BME280;60835;50.974;10.322;2023-08-06T09:22:23;97105.38;;;21.02;100.00
72721;BME280;60835;50.974;10.322;2023-08-06T09:24:50;97087.69;;;21.33;100.00
72721;BME280;60835;50.974;10.322;2023-08-06T09:27:16;97079.47;;;20.96;100.00
72721;BME280;60835;50.974;10.322;2023-08-06T09:29:44;97109.34;;;20.34;100.00
72721;BME280;60835;50.974;10.322;2023-08-06T09:32:12;97016.91;;;22.01;100.00
72721;BME280;60835;50.974;10.322;2023-08-06T09:34:41;97151.63;;;21.04;100.00
72721;BME280;60835;50.974;10.322;2023-08-06T09:37:10;97038.78;;;21.41;100.00
72721;BME280;60835;50.974;10.322;2023-08-06T09:39:39;97089.28;;;21.29;100.00
72721;BME280;60835;50.974;10.322;2023-08-06T09:42:05;97050.59;;;20.21;100.00
72721;BME280;60835;50.974;10.322;2023-08-06T09:44:33;97063.13;;;20.32;100.00
72721;BME280;60835;50.974;10.322;2023-08-06T09:47:03;97022.84;;;19.94;100.00
72721;BME280;60835;50.974;10.322;2023-08-06T09:51:59;97022.63;;;20.60;100.00
72721;BME280;60835;50.974;10.322;2023-08-06T09:54:27;97066.28;;;20.68;100.00
72721;BME280;60835;50.974;10.322;2023-08-06T09:56:56;97049.09;;;20.09;100.00
72721;BME280;60835;50.974;10.322;2023-08-06T09:59:23;97071.44;;;20.74;100.00
72721;BME280;60835;50.974;10.322;2023-08-06T10:01:51;97072.00;;;20.54;100.00
72721;BME280;60835;50.974;10.322;2023-08-06T10:04:19;97079.13;;;20.44;100.00
72721;BME280;60835;50.974;10.322;2023-08-06T10:06:50;97089.63;;;20.45;100.00
72721;BME280;60835;50.974;10.322;2023-08-06T10:09:17;97083.88;;;20.58;100.00
72721;BME280;60835;50.974;10.322;2023-08-06T10:11:51;97076.25;;;20.94;100.00
72721;BME280;60835;50.974;10.322;2023-08-06T10:14:26;97093.09;;;21.11;100.00
72721;BME280;60835;50.974;10.322;2023-08-06T10:16:54;97075.44;;;20.50;100.00
72721;BME280;60835;50.974;10.322;2023-08-06T10:19:23;97014.94;;;19.32;100.00
72721;BME280;60835;50.974;10.322;2023-08-06T10:22:13;96929.44;;;19.53;100.00
72721;BME280;60835;50.974;10.322;2023-08-06T10:27:13;96705.81;;;18.94;100.00
72721;BME280;60835;50.974;10.322;2023-08-06T10:29:39;96654.13;;;18.71;100.00
72721;BME280;60835;50.974;10.322;2023-08-06T10:32:06;96615.09;;;18.04;100.00
72721;BME280;60835;50.974;10.322;2023-08-06T10:37:20;96505.69;;;17.02;100.00
72721;BME280;60835;50.974;10.322;2023-08-06T10:39:49;96438.00;;;17.47;100.00
72721;BME280;60835;50.974;10.322;2023-08-06T10:42:27;96437.44;;;17.45;100.00
72721;BME280;60835;50.974;10.322;2023-08-06T10:45:14;96473.31;;;17.49;100.00
72721;BME280;60835;50.974;10.322;2023-08-06T10:47:45;96488.88;;;17.52;100.00
72721;BME280;60835;50.974;10.322;2023-08-06T10:50:14;96529.53;;;17.37;100.00
72721;BME280;60835;50.974;10.322;2023-08-06T10:52:47;96526.94;;;17.42;100.00
72721;BME280;60835;50.974;10.322;2023-08-06T10:55:14;96507.34;;;17.70;100.00
72721;BME280;60835;50.974;10.322;2023-08-06T10:57:41;96500.25;;;17.97;100.00
72721;BME280;60835;50.974;10.322;2023-08-06T11:00:08;96504.06;;;19.57;100.00
72721;BME280;60835;50.974;10.322;2023-08-06T11:02:42;96596.38;;;20.29;100.00
72721;BME280;60835;50.974;10.322;2023-08-06T11:05:11;96658.38;;;20.70;100.00
72721;BME280;60835;50.974;10.322;2023-08-06T11:07:38;96759.38;;;21.74;100.00
72721;BME280;60835;50.974;10.322;2023-08-06T11:10:07;96845.09;;;21.98;100.00
72721;BME280;60835;50.974;10.322;2023-08-06T11:12:34;96872.09;;;22.18;100.00
72721;BME280;60835;50.974;10.322;2023-08-06T11:15:02;96924.84;;;22.09;100.00
72721;BME280;60835;50.974;10.322;2023-08-06T11:17:31;96976.81;;;22.66;100.00
72721;BME280;60835;50.974;10.322;2023-08-06T11:19:59;97015.41;;;22.25;100.00
72721;BME280;60835;50.974;10.322;2023-08-06T11:22:26;96938.31;;;22.14;100.00
72721;BME280;60835;50.974;10.322;2023-08-06T11:24:53;96959.69;;;21.78;100.00
72721;BME280;60835;50.974;10.322;2023-08-06T11:27:20;96902.53;;;21.66;100.00
72721;BME280;60835;50.974;10.322;2023-08-06T11:29:47;96931.47;;;21.39;100.00
72721;BME280;60835;50.974;10.322;2023-08-06T11:32:14;96963.91;;;21.64;100.00
72721;BME280;60835;50.974;10.322;2023-08-06T11:34:43;96946.63;;;23.15;100.00
72721;BME280;60835;50.974;10.322;2023-08-06T11:37:10;97065.53;;;25.18;100.00
72721;BME280;60835;50.974;10.322;2023-08-06T11:39:38;97092.81;;;25.27;100.00
72721;BME280;60835;50.974;10.322;2023-08-06T11:42:06;97011.03;;;22.71;100.00
72721;BME280;60835;50.974;10.322;2023-08-06T11:44:36;96927.09;;;21.33;100.00
72721;BME280;60835;50.974;10.322;2023-08-06T11:47:03;96920.13;;;20.74;100.00
72721;BME280;60835;50.974;10.322;2023-08-06T11:49:48;96869.00;;;20.15;100.00
72721;BME280;60835;50.974;10.322;2023-08-06T11:52:16;96893.22;;;19.93;100.00
72721;BME280;60835;50.974;10.322;2023-08-06T11:57:45;96836.66;;;19.78;100.00
72721;BME280;60835;50.974;10.322;2023-08-06T12:00:13;96767.22;;;19.82;100.00
72721;BME280;60835;50.974;10.322;2023-08-06T12:02:41;96742.63;;;19.90;100.00
72721;BME280;60835;50.974;10.322;2023-08-06T12:05:12;96693.50;;;19.63;100.00
72721;BME280;60835;50.974;10.322;2023-08-06T12:07:41;96670.72;;;19.17;100.00
72721;BME280;60835;50.974;10.322;2023-08-06T12:10:09;96612.00;;;19.15;100.00
72721;BME280;60835;50.974;10.322;2023-08-06T12:12:36;96578.78;;;18.68;100.00
72721;BME280;60835;50.974;10.322;2023-08-06T12:15:03;96530.63;;;18.73;100.00
72721;BME280;60835;50.974;10.322;2023-08-06T12:17:30;96540.56;;;18.51;100.00
72721;BME280;60835;50.974;10.322;2023-08-06T12:19:57;96560.09;;;18.73;100.00
72721;BME280;60835;50.974;10.322;2023-08-06T12:22:24;96489.63;;;19.63;100.00
72721;BME280;60835;50.974;10.322;2023-08-06T12:24:50;96572.88;;;21.39;100.00
72721;BME280;60835;50.974;10.322;2023-08-06T12:27:17;96668.72;;;21.03;100.00
72721;BME280;60835;50.974;10.322;2023-08-06T12:29:45;96701.13;;;21.18;100.00
72721;BME280;60835;50.974;10.322;2023-08-06T12:32:12;96731.53;;;20.82;100.00
72721;BME280;60835;50.974;10.322;2023-08-06T12:34:39;96718.25;;;20.28;100.00
72721;BME280;60835;50.974;10.322;2023-08-06T12:37:18;96628.22;;;20.62;100.00
72721;BME280;60835;50.974;10.322;2023-08-06T12:39:45;96702.94;;;19.97;100.00
72721;BME280;60835;50.974;10.322;2023-08-06T12:42:11;96660.38;;;19.79;100.00
72721;BME280;60835;50.974;10.322;2023-08-06T12:44:38;96659.25;;;19.21;100.00
72721;BME280;60835;50.974;10.322;2023-08-06T12:47:04;96609.19;;;19.27;100.00
72721;BME280;60835;50.974;10.322;2023-08-06T12:49:31;96593.50;;;18.87;100.00
72721;BME280;60835;50.974;10.322;2023-08-06T12:51:59;96573.06;;;18.43;100.00
72721;BME280;60835;50.974;10.322;2023-08-06T12:54:26;96511.44;;;18.38;100.00
72721;BME280;60835;50.974;10.322;2023-08-06T12:56:54;96494.59;;;18.15;100.00